sensor_id;sensor_type;location;lat;lon;timestamp;pressure;altitude;pressure_sealevel;temperature;humidity
36520;BME280;40269;46.742;9.778;2023-02-23T00:00:25;85228.91;;;-0.65;42.82
36520;BME280;40269;46.742;9.778;2023-02-23T00:02:53;85228.02;;;2.15;39.75
36520;BME280;40269;46.742;9.778;2023-02-23T00:05:21;85229.16;;;0.08;41.56
36520;BME280;40269;46.742;9.778;2023-02-23T00:07:48;85225.48;;;1.79;38.90
36520;BME280;40269;46.742;9.778;2023-02-23T00:10:15;85228.94;;;-0.37;42.00
36520;BME280;40269;46.742;9.778;2023-02-23T00:12:43;85231.30;;;0.75;42.01
36520;BME280;40269;46.742;9.778;2023-02-23T00:15:11;85233.14;;;-2.39;48.39
36520;BME280;40269;46.742;9.778;2023-02-23T00:17:38;85228.27;;;-1.42;46.34
36520;BME280;40269;46.742;9.778;2023-02-23T00:20:07;85231.53;;;-0.66;43.38
36520;BME280;40269;46.742;9.778;2023-02-23T00:22:35;85231.93;;;0.49;41.54
36520;BME280;40269;46.742;9.778;2023-02-23T00:25:02;85235.35;;;0.23;42.35
36520;BME280;40269;46.742;9.778;2023-02-23T00:27:29;85235.06;;;0.85;42.02
36520;BME280;40269;46.742;9.778;2023-02-23T00:29:56;85235.02;;;0.82;41.94
36520;BME280;40269;46.742;9.778;2023-02-23T00:32:23;85229.31;;;-1.56;46.48
36520;BME280;40269;46.742;9.778;2023-02-23T00:34:51;85230.49;;;-0.81;46.12
36520;BME280;40269;46.742;9.778;2023-02-23T00:37:18;85233.75;;;-2.38;48.49
36520;BME280;40269;46.742;9.778;2023-02-23T00:39:46;85232.28;;;-2.84;50.29
36520;BME280;40269;46.742;9.778;2023-02-23T00:42:12;85232.41;;;-2.06;49.15
36520;BME280;40269;46.742;9.778;2023-02-23T00:44:40;85228.22;;;-2.07;48.49
36520;BME280;40269;46.742;9.778;2023-02-23T00:47:07;85229.83;;;-0.78;46.95
36520;BME280;40269;46.742;9.778;2023-02-23T00:49:34;85222.38;;;1.74;41.89
36520;BME280;40269;46.742;9.778;2023-02-23T00:52:01;85222.23;;;1.92;40.43
36520;BME280;40269;46.742;9.778;2023-02-23T00:54:29;85221.17;;;1.74;40.22
36520;BME280;40269;46.742;9.778;2023-02-23T00:56:55;85216.37;;;1.03;40.72
36520;BME280;40269;46.742;9.778;2023-02-23T00:59:22;85216.58;;;1.36;40.73
36520;BME280;40269;46.742;9.778;2023-02-23T01:01:49;85221.87;;;-0.11;42.96
36520;BME280;40269;46.742;9.778;2023-02-23T01:04:16;85218.42;;;0.03;43.05
36520;BME280;40269;46.742;9.778;2023-02-23T01:06:43;85217.31;;;-2.51;49.19
36520;BME280;40269;46.742;9.778;2023-02-23T01:09:13;85216.94;;;-3.53;52.53
36520;BME280;40269;46.742;9.778;2023-02-23T01:11:41;85214.57;;;-2.14;48.87
36520;BME280;40269;46.742;9.778;2023-02-23T01:14:09;85213.67;;;-2.21;49.24
36520;BME280;40269;46.742;9.778;2023-02-23T01:16:37;85212.38;;;-1.56;48.65
36520;BME280;40269;46.742;9.778;2023-02-23T01:19:04;85208.85;;;1.48;41.36
36520;BME280;40269;46.742;9.778;2023-02-23T01:21:33;85203.99;;;2.75;39.59
36520;BME280;40269;46.742;9.778;2023-02-23T01:24:02;85200.19;;;3.23;37.41
36520;BME280;40269;46.742;9.778;2023-02-23T01:26:37;85199.87;;;2.63;37.71
36520;BME280;40269;46.742;9.778;2023-02-23T01:29:06;85203.31;;;1.53;39.96
36520;BME280;40269;46.742;9.778;2023-02-23T01:31:42;85200.21;;;3.83;36.57
36520;BME280;40269;46.742;9.778;2023-02-23T01:34:11;85202.36;;;2.55;37.80
36520;BME280;40269;46.742;9.778;2023-02-23T01:36:45;85204.57;;;0.33;42.09
36520;BME280;40269;46.742;9.778;2023-02-23T01:39:13;85203.45;;;-0.44;44.48
36520;BME280;40269;46.742;9.778;2023-02-23T01:41:41;85195.24;;;1.25;41.33
36520;BME280;40269;46.742;9.778;2023-02-23T01:45:25;85196.91;;;0.65;42.12
36520;BME280;40269;46.742;9.778;2023-02-23T01:47:56;85190.10;;;2.54;39.47
36520;BME280;40269;46.742;9.778;2023-02-23T01:50:26;85193.39;;;0.45;42.90
36520;BME280;40269;46.742;9.778;2023-02-23T01:52:53;85189.76;;;-2.17;48.30
36520;BME280;40269;46.742;9.778;2023-02-23T01:55:22;85192.40;;;-1.41;47.92
36520;BME280;40269;46.742;9.778;2023-02-23T01:57:54;85189.15;;;-1.21;47.47
36520;BME280;40269;46.742;9.778;2023-02-23T02:00:23;85186.18;;;-0.82;47.54
36520;BME280;40269;46.742;9.778;2023-02-23T02:02:55;85186.14;;;-1.81;48.38
36520;BME280;40269;46.742;9.778;2023-02-23T02:05:22;85183.72;;;-1.42;48.30
36520;BME280;40269;46.742;9.778;2023-02-23T02:07:50;85179.74;;;-0.22;46.65
36520;BME280;40269;46.742;9.778;2023-02-23T02:10:18;85177.09;;;-1.80;48.19
36520;BME280;40269;46.742;9.778;2023-02-23T02:12:48;85174.11;;;-0.39;46.47
36520;BME280;40269;46.742;9.778;2023-02-23T02:15:16;85169.14;;;1.37;44.32
36520;BME280;40269;46.742;9.778;2023-02-23T02:17:48;85169.04;;;1.11;43.62
36520;BME280;40269;46.742;9.778;2023-02-23T02:20:36;85168.66;;;0.45;44.86
36520;BME280;40269;46.742;9.778;2023-02-23T02:23:34;85163.46;;;3.41;39.11
36520;BME280;40269;46.742;9.778;2023-02-23T02:26:21;85158.47;;;2.07;40.79
36520;BME280;40269;46.742;9.778;2023-02-23T02:29:08;85156.74;;;4.14;38.13
36520;BME280;40269;46.742;9.778;2023-02-23T02:31:58;85158.40;;;4.14;37.43
36520;BME280;40269;46.742;9.778;2023-02-23T02:34:47;85153.46;;;1.19;42.85
36520;BME280;40269;46.742;9.778;2023-02-23T02:37:37;85154.27;;;1.34;43.48
36520;BME280;40269;46.742;9.778;2023-02-23T02:40:16;85150.45;;;3.52;39.09
36520;BME280;40269;46.742;9.778;2023-02-23T02:42:57;85148.47;;;3.52;38.49
36520;BME280;40269;46.742;9.778;2023-02-23T02:45:29;85149.56;;;2.68;40.41
36520;BME280;40269;46.742;9.778;2023-02-23T02:48:05;85148.97;;;0.91;43.64
36520;BME280;40269;46.742;9.778;2023-02-23T02:50:40;85148.86;;;1.78;42.52
36520;BME280;40269;46.742;9.778;2023-02-23T02:53:11;85148.30;;;3.82;39.06
36520;BME280;40269;46.742;9.778;2023-02-23T02:55:42;85150.48;;;4.65;37.41
36520;BME280;40269;46.742;9.778;2023-02-23T02:58:11;85149.81;;;2.00;40.60
36520;BME280;40269;46.742;9.778;2023-02-23T03:00:41;85155.96;;;-0.82;46.49
36520;BME280;40269;46.742;9.778;2023-02-23T03:03:57;85153.38;;;1.81;41.79
36520;BME280;40269;46.742;9.778;2023-02-23T03:06:28;85150.81;;;3.86;38.47
36520;BME280;40269;46.742;9.778;2023-02-23T03:09:02;85152.94;;;3.94;37.93
36520;BME280;40269;46.742;9.778;2023-02-23T03:11:35;85153.01;;;4.54;37.18
36520;BME280;40269;46.742;9.778;2023-02-23T03:14:14;85150.95;;;4.56;36.86
36520;BME280;40269;46.742;9.778;2023-02-23T03:16:51;85151.14;;;4.59;37.01
36520;BME280;40269;46.742;9.778;2023-02-23T03:19:25;85148.97;;;5.03;35.30
36520;BME280;40269;46.742;9.778;2023-02-23T03:21:59;85154.14;;;3.86;36.36
36520;BME280;40269;46.742;9.778;2023-02-23T03:24:34;85155.39;;;3.60;37.28
36520;BME280;40269;46.742;9.778;2023-02-23T03:27:09;85156.64;;;5.53;34.55
36520;BME280;40269;46.742;9.778;2023-02-23T03:29:46;85158.29;;;5.74;34.05
36520;BME280;40269;46.742;9.778;2023-02-23T03:32:21;85159.92;;;4.98;35.07
36520;BME280;40269;46.742;9.778;2023-02-23T03:34:55;85159.60;;;4.51;35.52
36520;BME280;40269;46.742;9.778;2023-02-23T03:37:30;85159.17;;;4.96;35.74
36520;BME280;40269;46.742;9.778;2023-02-23T03:40:03;85161.13;;;5.84;34.70
36520;BME280;40269;46.742;9.778;2023-02-23T03:42:34;85162.72;;;5.63;34.37
36520;BME280;40269;46.742;9.778;2023-02-23T03:45:06;85164.97;;;5.94;33.95
36520;BME280;40269;46.742;9.778;2023-02-23T03:47:37;85165.83;;;5.88;34.41
36520;BME280;40269;46.742;9.778;2023-02-23T03:50:13;85164.35;;;4.95;35.19
36520;BME280;40269;46.742;9.778;2023-02-23T03:52:45;85165.35;;;5.38;34.93
36520;BME280;40269;46.742;9.778;2023-02-23T03:55:17;85165.86;;;5.17;35.88
36520;BME280;40269;46.742;9.778;2023-02-23T03:57:48;85167.25;;;5.44;35.59
36520;BME280;40269;46.742;9.778;2023-02-23T04:00:21;85165.42;;;5.14;34.88
36520;BME280;40269;46.742;9.778;2023-02-23T04:02:50;85165.16;;;5.75;34.88
36520;BME280;40269;46.742;9.778;2023-02-23T04:05:20;85167.15;;;5.67;34.96
36520;BME280;40269;46.742;9.778;2023-02-23T04:07:50;85167.13;;;5.65;35.35
36520;BME280;40269;46.742;9.778;2023-02-23T04:10:17;85166.44;;;5.29;35.55
36520;BME280;40269;46.742;9.778;2023-02-23T04:12:51;85166.53;;;5.41;35.48
36520;BME280;40269;46.742;9.778;2023-02-23T04:15:26;85165.81;;;5.38;35.67
36520;BME280;40269;46.742;9.778;2023-02-23T04:17:55;85165.79;;;3.28;38.28
36520;BME280;40269;46.742;9.778;2023-02-23T04:20:22;85167.99;;;3.32;39.07
36520;BME280;40269;46.742;9.778;2023-02-23T04:22:49;85168.26;;;4.91;36.36
36520;BME280;40269;46.742;9.778;2023-02-23T04:25:17;85164.08;;;1.13;41.12
36520;BME280;40269;46.742;9.778;2023-02-23T04:27:44;85166.06;;;4.21;37.39
36520;BME280;40269;46.742;9.778;2023-02-23T04:30:11;85165.44;;;2.53;39.31
36520;BME280;40269;46.742;9.778;2023-02-23T04:32:39;85164.16;;;4.28;36.47
36520;BME280;40269;46.742;9.778;2023-02-23T04:35:07;85165.66;;;5.20;35.66
36520;BME280;40269;46.742;9.778;2023-02-23T04:37:33;85167.27;;;4.45;36.02
36520;BME280;40269;46.742;9.778;2023-02-23T04:40:00;85166.87;;;5.50;34.28
36520;BME280;40269;46.742;9.778;2023-02-23T04:42:27;85167.33;;;4.58;35.69
36520;BME280;40269;46.742;9.778;2023-02-23T04:44:54;85168.22;;;5.79;34.36
36520;BME280;40269;46.742;9.778;2023-02-23T04:47:21;85165.70;;;3.88;36.49
36520;BME280;40269;46.742;9.778;2023-02-23T04:49:48;85167.40;;;5.54;35.04
36520;BME280;40269;46.742;9.778;2023-02-23T04:52:15;85168.81;;;4.03;37.21
36520;BME280;40269;46.742;9.778;2023-02-23T04:54:42;85168.01;;;1.33;41.51
36520;BME280;40269;46.742;9.778;2023-02-23T04:57:09;85170.44;;;3.86;37.38
36520;BME280;40269;46.742;9.778;2023-02-23T04:59:36;85170.46;;;3.69;38.09
36520;BME280;40269;46.742;9.778;2023-02-23T05:02:03;85172.03;;;2.89;39.41
36520;BME280;40269;46.742;9.778;2023-02-23T05:04:31;85171.53;;;4.84;36.87
36520;BME280;40269;46.742;9.778;2023-02-23T05:06:58;85173.11;;;5.43;36.00
36520;BME280;40269;46.742;9.778;2023-02-23T05:09:25;85173.78;;;4.57;36.74
36520;BME280;40269;46.742;9.778;2023-02-23T05:11:52;85174.76;;;4.21;37.32
36520;BME280;40269;46.742;9.778;2023-02-23T05:14:20;85174.01;;;2.35;40.80
36520;BME280;40269;46.742;9.778;2023-02-23T05:16:47;85175.09;;;4.35;37.26
36520;BME280;40269;46.742;9.778;2023-02-23T05:19:14;85170.78;;;5.10;36.47
36520;BME280;40269;46.742;9.778;2023-02-23T05:21:41;85169.92;;;5.42;36.03
36520;BME280;40269;46.742;9.778;2023-02-23T05:24:09;85172.15;;;5.57;35.59
36520;BME280;40269;46.742;9.778;2023-02-23T05:26:35;85170.02;;;5.96;35.36
36520;BME280;40269;46.742;9.778;2023-02-23T05:29:03;85170.53;;;6.17;35.28
36520;BME280;40269;46.742;9.778;2023-02-23T05:31:30;85172.63;;;6.14;35.11
36520;BME280;40269;46.742;9.778;2023-02-23T05:33:57;85173.13;;;6.00;35.30
36520;BME280;40269;46.742;9.778;2023-02-23T05:36:24;85171.80;;;5.75;35.38
36520;BME280;40269;46.742;9.778;2023-02-23T05:38:51;85170.68;;;5.72;35.50
36520;BME280;40269;46.742;9.778;2023-02-23T05:41:21;85171.28;;;4.80;36.95
36520;BME280;40269;46.742;9.778;2023-02-23T05:43:49;85173.79;;;4.61;37.26
36520;BME280;40269;46.742;9.778;2023-02-23T05:46:18;85177.71;;;3.63;39.04
36520;BME280;40269;46.742;9.778;2023-02-23T05:48:46;85178.03;;;5.76;36.08
36520;BME280;40269;46.742;9.778;2023-02-23T05:51:14;85179.14;;;5.45;36.03
36520;BME280;40269;46.742;9.778;2023-02-23T05:53:42;85180.02;;;6.37;35.81
36520;BME280;40269;46.742;9.778;2023-02-23T05:56:12;85182.76;;;6.01;36.05
36520;BME280;40269;46.742;9.778;2023-02-23T05:58:39;85184.04;;;5.77;36.67
36520;BME280;40269;46.742;9.778;2023-02-23T06:01:06;85185.59;;;5.24;37.67
36520;BME280;40269;46.742;9.778;2023-02-23T06:03:33;85186.58;;;5.60;36.76
36520;BME280;40269;46.742;9.778;2023-02-23T06:06:00;85187.28;;;5.16;37.34
36520;BME280;40269;46.742;9.778;2023-02-23T06:08:27;85191.07;;;4.75;38.79
36520;BME280;40269;46.742;9.778;2023-02-23T06:10:53;85193.03;;;5.39;37.11
36520;BME280;40269;46.742;9.778;2023-02-23T06:13:20;85192.45;;;5.98;36.54
36520;BME280;40269;46.742;9.778;2023-02-23T06:15:48;85197.53;;;4.03;39.20
36520;BME280;40269;46.742;9.778;2023-02-23T06:18:15;85197.92;;;4.48;38.88
36520;BME280;40269;46.742;9.778;2023-02-23T06:20:42;85195.64;;;5.37;37.85
36520;BME280;40269;46.742;9.778;2023-02-23T06:23:09;85197.56;;;5.30;38.00
36520;BME280;40269;46.742;9.778;2023-02-23T06:25:36;85201.06;;;3.87;39.21
36520;BME280;40269;46.742;9.778;2023-02-23T06:28:03;85204.36;;;2.98;42.12
36520;BME280;40269;46.742;9.778;2023-02-23T06:30:30;85204.53;;;2.71;42.89
36520;BME280;40269;46.742;9.778;2023-02-23T06:32:57;85207.60;;;5.30;38.20
36520;BME280;40269;46.742;9.778;2023-02-23T06:35:24;85208.31;;;5.57;37.48
36520;BME280;40269;46.742;9.778;2023-02-23T06:37:51;85211.40;;;3.23;41.78
36520;BME280;40269;46.742;9.778;2023-02-23T06:40:18;85214.96;;;5.15;38.86
36520;BME280;40269;46.742;9.778;2023-02-23T06:42:45;85217.45;;;4.68;39.74
36520;BME280;40269;46.742;9.778;2023-02-23T06:45:12;85221.01;;;1.88;44.52
36520;BME280;40269;46.742;9.778;2023-02-23T06:47:39;85219.39;;;4.48;40.95
36520;BME280;40269;46.742;9.778;2023-02-23T06:50:08;85220.74;;;5.19;39.61
36520;BME280;40269;46.742;9.778;2023-02-23T06:52:36;85220.07;;;5.20;39.26
36520;BME280;40269;46.742;9.778;2023-02-23T06:55:04;85223.48;;;5.78;38.29
36520;BME280;40269;46.742;9.778;2023-02-23T06:57:31;85227.63;;;5.62;39.05
36520;BME280;40269;46.742;9.778;2023-02-23T06:59:59;85228.93;;;5.61;38.59
36520;BME280;40269;46.742;9.778;2023-02-23T07:02:26;85230.42;;;5.37;39.57
36520;BME280;40269;46.742;9.778;2023-02-23T07:04:53;85232.78;;;5.02;40.27
36520;BME280;40269;46.742;9.778;2023-02-23T07:07:20;85232.21;;;5.30;39.90
36520;BME280;40269;46.742;9.778;2023-02-23T07:09:47;85233.92;;;5.48;39.78
36520;BME280;40269;46.742;9.778;2023-02-23T07:12:15;85235.93;;;5.60;38.99
36520;BME280;40269;46.742;9.778;2023-02-23T07:14:42;85237.53;;;6.13;38.49
36520;BME280;40269;46.742;9.778;2023-02-23T07:17:08;85236.02;;;5.46;39.80
36520;BME280;40269;46.742;9.778;2023-02-23T07:19:35;85240.39;;;4.87;40.39
36520;BME280;40269;46.742;9.778;2023-02-23T07:22:02;85240.73;;;5.12;40.54
36520;BME280;40269;46.742;9.778;2023-02-23T07:24:29;85237.92;;;5.50;39.69
36520;BME280;40269;46.742;9.778;2023-02-23T07:26:56;85238.41;;;5.75;38.65
36520;BME280;40269;46.742;9.778;2023-02-23T07:29:23;85237.94;;;6.27;38.38
36520;BME280;40269;46.742;9.778;2023-02-23T07:31:50;85236.45;;;6.29;37.95
36520;BME280;40269;46.742;9.778;2023-02-23T07:34:17;85236.70;;;5.88;38.55
36520;BME280;40269;46.742;9.778;2023-02-23T07:36:44;85234.04;;;5.45;39.96
36520;BME280;40269;46.742;9.778;2023-02-23T07:39:12;85234.92;;;5.44;40.09
36520;BME280;40269;46.742;9.778;2023-02-23T07:41:39;85238.44;;;5.83;39.59
36520;BME280;40269;46.742;9.778;2023-02-23T07:44:06;85237.27;;;5.87;38.89
36520;BME280;40269;46.742;9.778;2023-02-23T07:46:33;85236.07;;;2.20;45.33
36520;BME280;40269;46.742;9.778;2023-02-23T07:49:01;85234.47;;;1.08;48.83
36520;BME280;40269;46.742;9.778;2023-02-23T07:51:28;85233.15;;;1.46;47.69
36520;BME280;40269;46.742;9.778;2023-02-23T07:53:55;85231.79;;;2.76;45.35
36520;BME280;40269;46.742;9.778;2023-02-23T07:56:22;85236.17;;;4.72;41.65
36520;BME280;40269;46.742;9.778;2023-02-23T07:58:49;85232.41;;;3.77;41.90
36520;BME280;40269;46.742;9.778;2023-02-23T08:01:17;85231.84;;;5.09;41.09
36520;BME280;40269;46.742;9.778;2023-02-23T08:03:44;85234.96;;;4.56;41.75
36520;BME280;40269;46.742;9.778;2023-02-23T08:06:11;85231.91;;;3.94;43.37
36520;BME280;40269;46.742;9.778;2023-02-23T08:08:38;85232.04;;;6.03;40.23
36520;BME280;40269;46.742;9.778;2023-02-23T08:11:05;85231.51;;;4.99;41.92
36520;BME280;40269;46.742;9.778;2023-02-23T08:13:33;85231.10;;;1.51;47.44
36520;BME280;40269;46.742;9.778;2023-02-23T08:16:00;85233.90;;;0.14;51.54
36520;BME280;40269;46.742;9.778;2023-02-23T08:18:27;85228.16;;;3.34;45.35
36520;BME280;40269;46.742;9.778;2023-02-23T08:20:57;85227.89;;;5.67;41.19
36520;BME280;40269;46.742;9.778;2023-02-23T08:23:25;85222.91;;;3.29;44.28
36520;BME280;40269;46.742;9.778;2023-02-23T08:25:52;85228.07;;;5.58;41.28
36520;BME280;40269;46.742;9.778;2023-02-23T08:28:19;85229.02;;;4.85;41.23
36520;BME280;40269;46.742;9.778;2023-02-23T08:30:47;85226.57;;;5.93;39.97
36520;BME280;40269;46.742;9.778;2023-02-23T08:33:13;85229.05;;;6.54;38.91
36520;BME280;40269;46.742;9.778;2023-02-23T08:35:40;85227.48;;;6.39;38.49
36520;BME280;40269;46.742;9.778;2023-02-23T08:38:07;85222.08;;;6.48;38.55
36520;BME280;40269;46.742;9.778;2023-02-23T08:40:34;85223.75;;;3.27;44.08
36520;BME280;40269;46.742;9.778;2023-02-23T08:43:02;85228.74;;;4.15;43.38
36520;BME280;40269;46.742;9.778;2023-02-23T08:45:29;85230.90;;;5.94;40.29
36520;BME280;40269;46.742;9.778;2023-02-23T08:47:56;85232.84;;;5.65;40.06
36520;BME280;40269;46.742;9.778;2023-02-23T08:50:23;85232.27;;;4.88;41.17
36520;BME280;40269;46.742;9.778;2023-02-23T08:52:51;85235.66;;;4.51;40.93
36520;BME280;40269;46.742;9.778;2023-02-23T08:55:17;85234.67;;;5.69;40.25
36520;BME280;40269;46.742;9.778;2023-02-23T08:57:45;85230.18;;;6.58;39.02
36520;BME280;40269;46.742;9.778;2023-02-23T09:00:13;85232.31;;;6.12;39.46
36520;BME280;40269;46.742;9.778;2023-02-23T09:02:41;85231.38;;;5.68;40.25
36520;BME280;40269;46.742;9.778;2023-02-23T09:05:09;85231.11;;;5.56;40.23
36520;BME280;40269;46.742;9.778;2023-02-23T09:07:38;85226.43;;;7.35;37.96
36520;BME280;40269;46.742;9.778;2023-02-23T09:10:07;85224.16;;;7.90;36.88
36520;BME280;40269;46.742;9.778;2023-02-23T09:12:35;85222.52;;;7.13;37.69
36520;BME280;40269;46.742;9.778;2023-02-23T09:15:01;85221.03;;;8.22;36.12
36520;BME280;40269;46.742;9.778;2023-02-23T09:17:28;85222.88;;;8.57;35.00
36520;BME280;40269;46.742;9.778;2023-02-23T09:19:55;85218.87;;;8.12;35.60
36520;BME280;40269;46.742;9.778;2023-02-23T09:22:22;85220.82;;;8.07;36.05
36520;BME280;40269;46.742;9.778;2023-02-23T09:24:49;85225.24;;;8.49;34.82
36520;BME280;40269;46.742;9.778;2023-02-23T09:27:16;85229.09;;;6.82;37.94
36520;BME280;40269;46.742;9.778;2023-02-23T09:29:43;85232.60;;;2.91;46.31
36520;BME280;40269;46.742;9.778;2023-02-23T09:32:11;85229.05;;;3.32;45.73
36520;BME280;40269;46.742;9.778;2023-02-23T09:34:38;85230.94;;;5.62;40.95
36520;BME280;40269;46.742;9.778;2023-02-23T09:37:05;85230.91;;;1.99;48.38
36520;BME280;40269;46.742;9.778;2023-02-23T09:39:32;85231.92;;;2.00;47.15
36520;BME280;40269;46.742;9.778;2023-02-23T09:42:13;85233.58;;;5.21;42.05
36520;BME280;40269;46.742;9.778;2023-02-23T09:45:06;85227.61;;;7.09;38.59
36520;BME280;40269;46.742;9.778;2023-02-23T09:47:47;85226.88;;;6.86;38.22
36520;BME280;40269;46.742;9.778;2023-02-23T09:50:20;85224.23;;;7.59;37.54
36520;BME280;40269;46.742;9.778;2023-02-23T09:52:55;85226.19;;;8.16;37.58
36520;BME280;40269;46.742;9.778;2023-02-23T09:55:25;85229.82;;;4.21;44.33
36520;BME280;40269;46.742;9.778;2023-02-23T09:57:53;85227.84;;;3.32;46.01
36520;BME280;40269;46.742;9.778;2023-02-23T10:00:24;85224.91;;;6.66;39.83
36520;BME280;40269;46.742;9.778;2023-02-23T10:03:07;85230.34;;;4.87;43.00
36520;BME280;40269;46.742;9.778;2023-02-23T10:05:40;85229.95;;;2.34;47.14
36520;BME280;40269;46.742;9.778;2023-02-23T10:08:19;85230.04;;;4.37;46.05
36520;BME280;40269;46.742;9.778;2023-02-23T10:10:52;85220.65;;;7.52;39.07
36520;BME280;40269;46.742;9.778;2023-02-23T10:13:29;85227.86;;;5.93;40.35
36520;BME280;40269;46.742;9.778;2023-02-23T10:16:05;85220.57;;;7.74;37.74
36520;BME280;40269;46.742;9.778;2023-02-23T10:18:37;85218.31;;;7.33;37.82
36520;BME280;40269;46.742;9.778;2023-02-23T10:21:13;85215.82;;;8.32;35.78
36520;BME280;40269;46.742;9.778;2023-02-23T10:23:44;85215.19;;;6.76;37.97
36520;BME280;40269;46.742;9.778;2023-02-23T10:26:16;85214.80;;;7.85;37.27
36520;BME280;40269;46.742;9.778;2023-02-23T10:28:44;85214.24;;;8.49;34.73
36520;BME280;40269;46.742;9.778;2023-02-23T10:31:24;85213.55;;;9.17;34.71
36520;BME280;40269;46.742;9.778;2023-02-23T10:33:54;85214.58;;;6.40;37.88
36520;BME280;40269;46.742;9.778;2023-02-23T10:36:33;85220.23;;;4.07;44.95
36520;BME280;40269;46.742;9.778;2023-02-23T10:39:03;85221.28;;;5.60;41.64
36520;BME280;40269;46.742;9.778;2023-02-23T10:41:30;85224.40;;;3.98;43.73
36520;BME280;40269;46.742;9.778;2023-02-23T10:43:58;85221.11;;;5.40;43.42
36520;BME280;40269;46.742;9.778;2023-02-23T10:46:30;85217.12;;;7.07;39.07
36520;BME280;40269;46.742;9.778;2023-02-23T10:49:02;85220.82;;;5.18;41.28
36520;BME280;40269;46.742;9.778;2023-02-23T10:51:33;85215.10;;;6.15;41.63
36520;BME280;40269;46.742;9.778;2023-02-23T10:54:35;85210.11;;;7.56;38.09
36520;BME280;40269;46.742;9.778;2023-02-23T10:57:04;85204.31;;;7.28;37.98
36520;BME280;40269;46.742;9.778;2023-02-23T10:59:33;85207.75;;;5.73;39.35
36520;BME280;40269;46.742;9.778;2023-02-23T11:02:15;85200.16;;;6.04;41.23
36520;BME280;40269;46.742;9.778;2023-02-23T11:04:53;85196.97;;;7.64;38.63
36520;BME280;40269;46.742;9.778;2023-02-23T11:07:23;85195.16;;;7.23;39.31
36520;BME280;40269;46.742;9.778;2023-02-23T11:09:50;85193.04;;;6.68;38.41
36520;BME280;40269;46.742;9.778;2023-02-23T11:12:20;85191.76;;;4.85;41.64
36520;BME280;40269;46.742;9.778;2023-02-23T11:14:48;85185.16;;;7.44;39.88
36520;BME280;40269;46.742;9.778;2023-02-23T11:17:26;85180.67;;;8.81;37.54
36520;BME280;40269;46.742;9.778;2023-02-23T11:19:58;85182.45;;;8.62;36.01
36520;BME280;40269;46.742;9.778;2023-02-23T11:22:30;85177.08;;;7.32;36.99
36520;BME280;40269;46.742;9.778;2023-02-23T11:24:59;85181.57;;;5.27;41.86
36520;BME280;40269;46.742;9.778;2023-02-23T11:27:26;85178.45;;;3.07;44.87
36520;BME280;40269;46.742;9.778;2023-02-23T11:29:55;85173.82;;;5.45;43.06
36520;BME280;40269;46.742;9.778;2023-02-23T11:32:28;85163.46;;;6.75;38.59
36520;BME280;40269;46.742;9.778;2023-02-23T11:35:31;85167.12;;;4.60;40.80
36520;BME280;40269;46.742;9.778;2023-02-23T11:37:59;85163.08;;;6.11;39.39
36520;BME280;40269;46.742;9.778;2023-02-23T11:40:40;85162.49;;;4.19;43.57
36520;BME280;40269;46.742;9.778;2023-02-23T11:43:11;85158.62;;;5.82;41.95
36520;BME280;40269;46.742;9.778;2023-02-23T11:45:45;85158.69;;;3.43;43.86
36520;BME280;40269;46.742;9.778;2023-02-23T11:48:20;85155.68;;;4.05;46.04
36520;BME280;40269;46.742;9.778;2023-02-23T11:50:48;85156.61;;;4.10;44.29
36520;BME280;40269;46.742;9.778;2023-02-23T11:53:18;85148.69;;;3.73;45.18
36520;BME280;40269;46.742;9.778;2023-02-23T11:55:48;85146.51;;;4.15;44.34
36520;BME280;40269;46.742;9.778;2023-02-23T11:58:22;85146.21;;;3.66;44.46
36520;BME280;40269;46.742;9.778;2023-02-23T12:00:56;85140.48;;;3.85;44.18
36520;BME280;40269;46.742;9.778;2023-02-23T12:03:26;85139.31;;;3.79;43.90
36520;BME280;40269;46.742;9.778;2023-02-23T12:05:55;85134.62;;;4.52;42.65
36520;BME280;40269;46.742;9.778;2023-02-23T12:08:32;85135.30;;;4.48;41.85
36520;BME280;40269;46.742;9.778;2023-02-23T12:11:04;85130.29;;;4.96;41.85
36520;BME280;40269;46.742;9.778;2023-02-23T12:13:36;85127.20;;;5.66;41.28
36520;BME280;40269;46.742;9.778;2023-02-23T12:16:11;85126.23;;;5.07;40.24
36520;BME280;40269;46.742;9.778;2023-02-23T12:18:45;85120.91;;;5.86;39.83
36520;BME280;40269;46.742;9.778;2023-02-23T12:21:23;85124.25;;;4.65;41.10
36520;BME280;40269;46.742;9.778;2023-02-23T12:24:00;85115.16;;;6.05;39.16
36520;BME280;40269;46.742;9.778;2023-02-23T12:26:30;85111.34;;;7.54;37.27
36520;BME280;40269;46.742;9.778;2023-02-23T12:29:04;85107.23;;;6.86;35.81
36520;BME280;40269;46.742;9.778;2023-02-23T12:31:41;85104.99;;;9.80;33.59
36520;BME280;40269;46.742;9.778;2023-02-23T12:34:13;85102.70;;;10.76;30.47
36520;BME280;40269;46.742;9.778;2023-02-23T12:36:44;85097.00;;;10.66;32.31
36520;BME280;40269;46.742;9.778;2023-02-23T12:39:15;85094.49;;;7.64;35.26
36520;BME280;40269;46.742;9.778;2023-02-23T12:41:53;85093.08;;;8.03;36.49
36520;BME280;40269;46.742;9.778;2023-02-23T12:44:30;85095.12;;;10.05;34.68
36520;BME280;40269;46.742;9.778;2023-02-23T12:47:06;85088.85;;;10.51;31.33
36520;BME280;40269;46.742;9.778;2023-02-23T12:49:37;85089.11;;;12.45;28.77
36520;BME280;40269;46.742;9.778;2023-02-23T12:52:11;85089.82;;;11.19;26.59
36520;BME280;40269;46.742;9.778;2023-02-23T12:54:39;85086.32;;;12.63;25.94
36520;BME280;40269;46.742;9.778;2023-02-23T12:57:15;85083.80;;;11.63;26.94
36520;BME280;40269;46.742;9.778;2023-02-23T13:00:05;85086.71;;;7.97;32.55
36520;BME280;40269;46.742;9.778;2023-02-23T13:02:40;85082.06;;;9.25;32.33
36520;BME280;40269;46.742;9.778;2023-02-23T13:05:18;85076.48;;;11.10;27.28
36520;BME280;40269;46.742;9.778;2023-02-23T13:07:54;85070.24;;;11.61;27.15
36520;BME280;40269;46.742;9.778;2023-02-23T13:10:31;85070.91;;;12.21;27.98
36520;BME280;40269;46.742;9.778;2023-02-23T13:13:15;85069.09;;;10.87;27.32
36520;BME280;40269;46.742;9.778;2023-02-23T13:15:54;85066.09;;;13.16;25.78
36520;BME280;40269;46.742;9.778;2023-02-23T13:18:28;85064.30;;;13.07;26.49
36520;BME280;40269;46.742;9.778;2023-02-23T13:21:04;85063.34;;;13.15;24.51
36520;BME280;40269;46.742;9.778;2023-02-23T13:23:37;85062.74;;;10.85;26.35
36520;BME280;40269;46.742;9.778;2023-02-23T13:26:13;85065.41;;;12.46;25.36
36520;BME280;40269;46.742;9.778;2023-02-23T13:28:51;85063.83;;;12.45;25.39